sensor_id;sensor_type;location;lat;lon;timestamp;temperature;humidity
31661;DHT22;18267;52.234;7.444;2023-04-29T00:00:40;12.00;99.90
31661;DHT22;18267;52.234;7.444;2023-04-29T00:03:05;12.10;99.90
31661;DHT22;18267;52.234;7.444;2023-04-29T00:05:31;12.00;99.90
31661;DHT22;18267;52.234;7.444;2023-04-29T00:07:56;11.90;99.90
31661;DHT22;18267;52.234;7.444;2023-04-29T00:10:22;12.00;99.90
31661;DHT22;18267;52.234;7.444;2023-04-29T00:12:48;12.00;99.90
31661;DHT22;18267;52.234;7.444;2023-04-29T00:15:16;12.00;99.90
31661;DHT22;18267;52.234;7.444;2023-04-29T00:17:41;12.10;99.90
31661;DHT22;18267;52.234;7.444;2023-04-29T00:20:07;12.10;99.90
31661;DHT22;18267;52.234;7.444;2023-04-29T00:22:33;12.10;99.90
31661;DHT22;18267;52.234;7.444;2023-04-29T00:24:58;12.10;99.90
31661;DHT22;18267;52.234;7.444;2023-04-29T00:27:24;12.10;99.90
31661;DHT22;18267;52.234;7.444;2023-04-29T00:29:50;12.10;99.90
31661;DHT22;18267;52.234;7.444;2023-04-29T00:32:15;12.00;99.90
31661;DHT22;18267;52.234;7.444;2023-04-29T00:34:41;12.00;99.90
31661;DHT22;18267;52.234;7.444;2023-04-29T00:37:06;12.10;99.90
31661;DHT22;18267;52.234;7.444;2023-04-29T00:39:32;12.00;99.90
31661;DHT22;18267;52.234;7.444;2023-04-29T00:41:58;12.00;99.90
31661;DHT22;18267;52.234;7.444;2023-04-29T00:44:23;12.10;99.90
31661;DHT22;18267;52.234;7.444;2023-04-29T00:46:50;12.10;99.90
31661;DHT22;18267;52.234;7.444;2023-04-29T00:49:17;12.00;99.90
31661;DHT22;18267;52.234;7.444;2023-04-29T00:51:43;12.10;99.90
31661;DHT22;18267;52.234;7.444;2023-04-29T00:54:09;12.10;99.90
31661;DHT22;18267;52.234;7.444;2023-04-29T00:56:36;12.00;99.90
31661;DHT22;18267;52.234;7.444;2023-04-29T00:59:03;12.00;99.90
31661;DHT22;18267;52.234;7.444;2023-04-29T01:01:30;11.80;99.90
31661;DHT22;18267;52.234;7.444;2023-04-29T01:03:56;11.80;99.90
31661;DHT22;18267;52.234;7.444;2023-04-29T01:12:02;11.70;99.90
31661;DHT22;18267;52.234;7.444;2023-04-29T01:14:32;11.70;99.90
31661;DHT22;18267;52.234;7.444;2023-04-29T01:16:59;11.60;99.90
31661;DHT22;18267;52.234;7.444;2023-04-29T01:19:49;11.60;99.90
31661;DHT22;18267;52.234;7.444;2023-04-29T01:22:16;11.60;99.90
31661;DHT22;18267;52.234;7.444;2023-04-29T01:24:43;11.50;99.90
31661;DHT22;18267;52.234;7.444;2023-04-29T01:27:28;11.50;99.90
31661;DHT22;18267;52.234;7.444;2023-04-29T01:35:21;11.60;99.90
31661;DHT22;18267;52.234;7.444;2023-04-29T01:38:01;11.50;99.90
31661;DHT22;18267;52.234;7.444;2023-04-29T01:40:46;11.50;99.90
31661;DHT22;18267;52.234;7.444;2023-04-29T01:43:14;11.50;99.90
31661;DHT22;18267;52.234;7.444;2023-04-29T01:45:40;11.60;99.90
31661;DHT22;18267;52.234;7.444;2023-04-29T01:48:07;11.60;99.90
31661;DHT22;18267;52.234;7.444;2023-04-29T01:50:32;11.60;99.90
31661;DHT22;18267;52.234;7.444;2023-04-29T01:52:58;11.60;99.90
31661;DHT22;18267;52.234;7.444;2023-04-29T01:55:24;11.70;99.90
31661;DHT22;18267;52.234;7.444;2023-04-29T01:57:50;11.60;99.90
31661;DHT22;18267;52.234;7.444;2023-04-29T02:00:15;11.60;99.90
31661;DHT22;18267;52.234;7.444;2023-04-29T02:02:41;11.70;99.90
31661;DHT22;18267;52.234;7.444;2023-04-29T02:05:06;11.70;99.90
31661;DHT22;18267;52.234;7.444;2023-04-29T02:07:33;11.60;99.90
31661;DHT22;18267;52.234;7.444;2023-04-29T02:09:59;11.50;99.90
31661;DHT22;18267;52.234;7.444;2023-04-29T02:12:26;11.50;99.90
31661;DHT22;18267;52.234;7.444;2023-04-29T02:14:52;11.50;99.90
31661;DHT22;18267;52.234;7.444;2023-04-29T02:17:18;11.50;99.90
31661;DHT22;18267;52.234;7.444;2023-04-29T02:19:44;11.40;99.90
31661;DHT22;18267;52.234;7.444;2023-04-29T02:22:09;11.30;99.90
31661;DHT22;18267;52.234;7.444;2023-04-29T02:24:37;11.30;99.90
31661;DHT22;18267;52.234;7.444;2023-04-29T02:27:03;11.30;99.90
31661;DHT22;18267;52.234;7.444;2023-04-29T02:29:30;11.30;99.90
31661;DHT22;18267;52.234;7.444;2023-04-29T02:31:56;11.40;99.90
31661;DHT22;18267;52.234;7.444;2023-04-29T02:34:22;11.40;99.90
31661;DHT22;18267;52.234;7.444;2023-04-29T02:36:48;11.40;99.90
31661;DHT22;18267;52.234;7.444;2023-04-29T02:39:14;11.30;99.90
31661;DHT22;18267;52.234;7.444;2023-04-29T02:41:40;11.40;99.90
31661;DHT22;18267;52.234;7.444;2023-04-29T02:44:06;11.40;99.90
31661;DHT22;18267;52.234;7.444;2023-04-29T02:46:32;11.30;99.90
31661;DHT22;18267;52.234;7.444;2023-04-29T02:49:00;11.40;99.90
31661;DHT22;18267;52.234;7.444;2023-04-29T02:51:26;11.30;99.90
31661;DHT22;18267;52.234;7.444;2023-04-29T02:53:52;11.20;99.90
31661;DHT22;18267;52.234;7.444;2023-04-29T02:56:17;11.20;99.90
31661;DHT22;18267;52.234;7.444;2023-04-29T02:58:43;11.10;99.90
31661;DHT22;18267;52.234;7.444;2023-04-29T03:01:09;11.10;99.90
31661;DHT22;18267;52.234;7.444;2023-04-29T03:03:34;11.00;99.90
31661;DHT22;18267;52.234;7.444;2023-04-29T03:06:00;11.00;99.90
31661;DHT22;18267;52.234;7.444;2023-04-29T03:08:25;11.00;99.90
31661;DHT22;18267;52.234;7.444;2023-04-29T03:10:51;11.00;99.90
31661;DHT22;18267;52.234;7.444;2023-04-29T03:13:18;11.00;99.90
31661;DHT22;18267;52.234;7.444;2023-04-29T03:15:43;11.00;99.90
31661;DHT22;18267;52.234;7.444;2023-04-29T03:18:09;11.00;99.90
31661;DHT22;18267;52.234;7.444;2023-04-29T03:20:35;11.00;99.90
31661;DHT22;18267;52.234;7.444;2023-04-29T03:23:01;11.00;99.90
31661;DHT22;18267;52.234;7.444;2023-04-29T03:25:27;11.00;99.90
31661;DHT22;18267;52.234;7.444;2023-04-29T03:27:53;10.90;99.90
31661;DHT22;18267;52.234;7.444;2023-04-29T03:30:18;10.80;99.90
31661;DHT22;18267;52.234;7.444;2023-04-29T03:32:44;10.80;99.90
31661;DHT22;18267;52.234;7.444;2023-04-29T03:35:09;10.80;99.90
31661;DHT22;18267;52.234;7.444;2023-04-29T03:37:37;10.80;99.90
31661;DHT22;18267;52.234;7.444;2023-04-29T03:40:03;10.70;99.90
31661;DHT22;18267;52.234;7.444;2023-04-29T03:42:29;10.70;99.90
31661;DHT22;18267;52.234;7.444;2023-04-29T03:44:55;10.70;99.90
31661;DHT22;18267;52.234;7.444;2023-04-29T03:47:20;10.70;99.90
31661;DHT22;18267;52.234;7.444;2023-04-29T03:49:46;10.70;99.90
31661;DHT22;18267;52.234;7.444;2023-04-29T03:52:11;10.60;99.90
31661;DHT22;18267;52.234;7.444;2023-04-29T03:54:37;10.60;99.90
31661;DHT22;18267;52.234;7.444;2023-04-29T03:57:02;10.60;99.90
31661;DHT22;18267;52.234;7.444;2023-04-29T03:59:28;10.60;99.90
31661;DHT22;18267;52.234;7.444;2023-04-29T04:01:54;10.60;99.90
31661;DHT22;18267;52.234;7.444;2023-04-29T04:04:20;10.50;99.90
31661;DHT22;18267;52.234;7.444;2023-04-29T04:06:46;10.50;99.90
31661;DHT22;18267;52.234;7.444;2023-04-29T04:09:16;10.50;99.90
31661;DHT22;18267;52.234;7.444;2023-04-29T04:11:42;10.50;99.90
31661;DHT22;18267;52.234;7.444;2023-04-29T04:14:10;10.50;99.90
31661;DHT22;18267;52.234;7.444;2023-04-29T04:16:35;10.50;99.90
31661;DHT22;18267;52.234;7.444;2023-04-29T04:19:01;10.50;99.90
31661;DHT22;18267;52.234;7.444;2023-04-29T04:21:27;10.50;99.90
31661;DHT22;18267;52.234;7.444;2023-04-29T04:23:54;10.50;99.90
31661;DHT22;18267;52.234;7.444;2023-04-29T04:26:20;10.40;99.90
31661;DHT22;18267;52.234;7.444;2023-04-29T04:28:46;10.40;99.90
31661;DHT22;18267;52.234;7.444;2023-04-29T04:31:11;10.50;99.90
31661;DHT22;18267;52.234;7.444;2023-04-29T04:33:40;10.40;99.90
31661;DHT22;18267;52.234;7.444;2023-04-29T04:36:06;10.40;99.90
31661;DHT22;18267;52.234;7.444;2023-04-29T04:38:32;10.40;99.90
31661;DHT22;18267;52.234;7.444;2023-04-29T04:40:57;10.50;99.90
31661;DHT22;18267;52.234;7.444;2023-04-29T04:43:23;10.50;99.90
31661;DHT22;18267;52.234;7.444;2023-04-29T04:45:49;10.50;99.90
31661;DHT22;18267;52.234;7.444;2023-04-29T04:48:14;10.40;99.90
31661;DHT22;18267;52.234;7.444;2023-04-29T04:50:40;10.40;99.90
31661;DHT22;18267;52.234;7.444;2023-04-29T04:53:06;10.40;99.90
31661;DHT22;18267;52.234;7.444;2023-04-29T04:55:31;10.40;99.90
31661;DHT22;18267;52.234;7.444;2023-04-29T04:57:58;10.30;99.90
31661;DHT22;18267;52.234;7.444;2023-04-29T05:00:23;10.30;99.90
31661;DHT22;18267;52.234;7.444;2023-04-29T05:02:49;10.30;99.90
31661;DHT22;18267;52.234;7.444;2023-04-29T05:05:15;10.30;99.90
31661;DHT22;18267;52.234;7.444;2023-04-29T05:07:41;10.30;99.90
31661;DHT22;18267;52.234;7.444;2023-04-29T05:10:07;10.30;99.90
31661;DHT22;18267;52.234;7.444;2023-04-29T05:12:33;10.30;99.90
31661;DHT22;18267;52.234;7.444;2023-04-29T05:14:59;10.30;99.90
31661;DHT22;18267;52.234;7.444;2023-04-29T05:17:27;10.30;99.90
31661;DHT22;18267;52.234;7.444;2023-04-29T05:19:52;10.30;99.90
31661;DHT22;18267;52.234;7.444;2023-04-29T05:22:18;10.40;99.90
31661;DHT22;18267;52.234;7.444;2023-04-29T05:24:43;10.30;99.90
31661;DHT22;18267;52.234;7.444;2023-04-29T05:27:09;10.30;99.90
31661;DHT22;18267;52.234;7.444;2023-04-29T05:29:35;10.30;99.90
31661;DHT22;18267;52.234;7.444;2023-04-29T05:32:00;10.20;99.90
31661;DHT22;18267;52.234;7.444;2023-04-29T05:34:28;10.10;99.90
31661;DHT22;18267;52.234;7.444;2023-04-29T05:36:54;10.20;99.90
31661;DHT22;18267;52.234;7.444;2023-04-29T05:39:19;10.20;99.90
31661;DHT22;18267;52.234;7.444;2023-04-29T05:41:45;10.10;99.90
31661;DHT22;18267;52.234;7.444;2023-04-29T05:44:10;10.10;99.90
31661;DHT22;18267;52.234;7.444;2023-04-29T05:46:36;10.10;99.90
31661;DHT22;18267;52.234;7.444;2023-04-29T05:49:01;10.10;99.90
31661;DHT22;18267;52.234;7.444;2023-04-29T05:51:27;10.20;99.90
31661;DHT22;18267;52.234;7.444;2023-04-29T05:53:53;10.10;99.90
31661;DHT22;18267;52.234;7.444;2023-04-29T05:56:20;10.10;99.90
31661;DHT22;18267;52.234;7.444;2023-04-29T05:58:46;10.00;99.90
31661;DHT22;18267;52.234;7.444;2023-04-29T06:01:12;10.10;99.90
31661;DHT22;18267;52.234;7.444;2023-04-29T06:03:37;10.10;99.90
31661;DHT22;18267;52.234;7.444;2023-04-29T06:06:03;10.20;99.90
31661;DHT22;18267;52.234;7.444;2023-04-29T06:08:29;10.20;99.90
31661;DHT22;18267;52.234;7.444;2023-04-29T06:10:55;10.20;99.90
31661;DHT22;18267;52.234;7.444;2023-04-29T06:13:20;10.20;99.90
31661;DHT22;18267;52.234;7.444;2023-04-29T06:15:46;10.10;99.90
31661;DHT22;18267;52.234;7.444;2023-04-29T06:18:11;10.10;99.90
31661;DHT22;18267;52.234;7.444;2023-04-29T06:20:37;10.10;99.90
31661;DHT22;18267;52.234;7.444;2023-04-29T06:23:02;10.10;99.90
31661;DHT22;18267;52.234;7.444;2023-04-29T06:25:29;10.20;99.90
31661;DHT22;18267;52.234;7.444;2023-04-29T06:27:56;10.20;99.90
31661;DHT22;18267;52.234;7.444;2023-04-29T06:30:22;10.30;99.90
31661;DHT22;18267;52.234;7.444;2023-04-29T06:32:47;10.40;99.90
31661;DHT22;18267;52.234;7.444;2023-04-29T06:35:13;10.50;99.90
31661;DHT22;18267;52.234;7.444;2023-04-29T06:37:39;10.50;99.90
31661;DHT22;18267;52.234;7.444;2023-04-29T06:40:05;10.60;99.90
31661;DHT22;18267;52.234;7.444;2023-04-29T06:42:31;10.50;99.90
31661;DHT22;18267;52.234;7.444;2023-04-29T06:44:56;10.40;99.90
31661;DHT22;18267;52.234;7.444;2023-04-29T06:47:23;10.50;99.90
31661;DHT22;18267;52.234;7.444;2023-04-29T06:49:49;10.60;99.90
31661;DHT22;18267;52.234;7.444;2023-04-29T06:52:14;10.60;99.90
31661;DHT22;18267;52.234;7.444;2023-04-29T06:54:40;10.50;99.90
31661;DHT22;18267;52.234;7.444;2023-04-29T06:57:05;10.60;99.90
31661;DHT22;18267;52.234;7.444;2023-04-29T06:59:31;10.70;99.90
31661;DHT22;18267;52.234;7.444;2023-04-29T07:01:58;10.80;99.90
31661;DHT22;18267;52.234;7.444;2023-04-29T07:04:23;10.70;99.90
31661;DHT22;18267;52.234;7.444;2023-04-29T07:06:49;10.90;99.90
31661;DHT22;18267;52.234;7.444;2023-04-29T07:09:15;10.80;99.90
31661;DHT22;18267;52.234;7.444;2023-04-29T07:11:41;10.80;99.90
31661;DHT22;18267;52.234;7.444;2023-04-29T07:14:07;10.90;99.90
31661;DHT22;18267;52.234;7.444;2023-04-29T07:16:33;10.90;99.90
31661;DHT22;18267;52.234;7.444;2023-04-29T07:18:59;10.90;99.90
31661;DHT22;18267;52.234;7.444;2023-04-29T07:21:27;10.90;99.90
31661;DHT22;18267;52.234;7.444;2023-04-29T07:23:54;10.90;99.90
31661;DHT22;18267;52.234;7.444;2023-04-29T07:26:20;10.90;99.90
31661;DHT22;18267;52.234;7.444;2023-04-29T07:28:47;10.80;99.90
31661;DHT22;18267;52.234;7.444;2023-04-29T07:31:13;10.80;99.90
31661;DHT22;18267;52.234;7.444;2023-04-29T07:33:39;10.90;99.90
31661;DHT22;18267;52.234;7.444;2023-04-29T07:36:05;10.80;99.90
31661;DHT22;18267;52.234;7.444;2023-04-29T07:38:31;10.80;99.90
31661;DHT22;18267;52.234;7.444;2023-04-29T07:40:57;10.90;99.90
31661;DHT22;18267;52.234;7.444;2023-04-29T07:43:23;11.00;99.90
31661;DHT22;18267;52.234;7.444;2023-04-29T07:45:48;11.00;99.90
31661;DHT22;18267;52.234;7.444;2023-04-29T07:48:14;11.10;99.90
31661;DHT22;18267;52.234;7.444;2023-04-29T07:50:39;11.00;99.90
31661;DHT22;18267;52.234;7.444;2023-04-29T07:53:05;11.00;99.90
31661;DHT22;18267;52.234;7.444;2023-04-29T07:55:31;11.10;99.90
31661;DHT22;18267;52.234;7.444;2023-04-29T07:57:58;11.00;99.90
31661;DHT22;18267;52.234;7.444;2023-04-29T08:00:24;11.00;99.90
31661;DHT22;18267;52.234;7.444;2023-04-29T08:02:51;11.00;99.90
31661;DHT22;18267;52.234;7.444;2023-04-29T08:05:16;11.00;99.90
31661;DHT22;18267;52.234;7.444;2023-04-29T08:07:43;11.10;99.90
31661;DHT22;18267;52.234;7.444;2023-04-29T08:10:08;11.10;99.90
31661;DHT22;18267;52.234;7.444;2023-04-29T08:12:34;11.20;99.90
31661;DHT22;18267;52.234;7.444;2023-04-29T08:15:00;11.30;99.90
31661;DHT22;18267;52.234;7.444;2023-04-29T08:17:25;11.50;99.90
31661;DHT22;18267;52.234;7.444;2023-04-29T08:19:52;11.50;99.90
31661;DHT22;18267;52.234;7.444;2023-04-29T08:22:18;11.50;99.90
31661;DHT22;18267;52.234;7.444;2023-04-29T08:24:44;11.50;99.90
31661;DHT22;18267;52.234;7.444;2023-04-29T08:27:10;11.60;99.90
31661;DHT22;18267;52.234;7.444;2023-04-29T08:29:37;11.70;99.90
31661;DHT22;18267;52.234;7.444;2023-04-29T08:32:02;11.80;99.90
31661;DHT22;18267;52.234;7.444;2023-04-29T08:34:28;12.00;99.90
31661;DHT22;18267;52.234;7.444;2023-04-29T08:36:56;12.00;99.90
31661;DHT22;18267;52.234;7.444;2023-04-29T08:39:21;12.00;99.90
31661;DHT22;18267;52.234;7.444;2023-04-29T08:41:48;11.90;99.90
31661;DHT22;18267;52.234;7.444;2023-04-29T08:44:16;12.10;99.90
31661;DHT22;18267;52.234;7.444;2023-04-29T08:46:45;12.00;99.90
31661;DHT22;18267;52.234;7.444;2023-04-29T08:49:12;11.90;99.90
31661;DHT22;18267;52.234;7.444;2023-04-29T08:51:38;12.10;99.90
31661;DHT22;18267;52.234;7.444;2023-04-29T08:54:03;12.30;99.90
31661;DHT22;18267;52.234;7.444;2023-04-29T08:56:30;12.40;99.90
31661;DHT22;18267;52.234;7.444;2023-04-29T08:58:56;12.40;99.90
31661;DHT22;18267;52.234;7.444;2023-04-29T09:01:26;12.50;99.90
31661;DHT22;18267;52.234;7.444;2023-04-29T09:04:09;12.60;99.90
31661;DHT22;18267;52.234;7.444;2023-04-29T09:06:36;12.50;99.90
31661;DHT22;18267;52.234;7.444;2023-04-29T09:09:02;12.60;99.90
31661;DHT22;18267;52.234;7.444;2023-04-29T09:11:29;12.50;99.90
31661;DHT22;18267;52.234;7.444;2023-04-29T09:14:01;12.60;99.90
31661;DHT22;18267;52.234;7.444;2023-04-29T09:16:28;12.70;99.90
31661;DHT22;18267;52.234;7.444;2023-04-29T09:18:54;12.80;99.90
31661;DHT22;18267;52.234;7.444;2023-04-29T09:21:25;12.70;99.90
31661;DHT22;18267;52.234;7.444;2023-04-29T09:23:55;12.90;99.90
31661;DHT22;18267;52.234;7.444;2023-04-29T09:26:22;13.10;99.90
31661;DHT22;18267;52.234;7.444;2023-04-29T09:29:07;13.20;99.90
31661;DHT22;18267;52.234;7.444;2023-04-29T09:31:34;13.30;99.90
31661;DHT22;18267;52.234;7.444;2023-04-29T09:34:01;13.00;99.90
31661;DHT22;18267;52.234;7.444;2023-04-29T09:36:40;13.10;99.90
31661;DHT22;18267;52.234;7.444;2023-04-29T09:39:07;13.20;99.90
31661;DHT22;18267;52.234;7.444;2023-04-29T09:44:22;13.40;99.90
31661;DHT22;18267;52.234;7.444;2023-04-29T09:47:02;13.60;99.90
31661;DHT22;18267;52.234;7.444;2023-04-29T09:52:03;13.10;99.90
31661;DHT22;18267;52.234;7.444;2023-04-29T09:54:31;13.10;99.90
31661;DHT22;18267;52.234;7.444;2023-04-29T09:56:58;13.20;99.90
31661;DHT22;18267;52.234;7.444;2023-04-29T09:59:24;13.40;99.90
31661;DHT22;18267;52.234;7.444;2023-04-29T10:01:55;13.60;99.90
31661;DHT22;18267;52.234;7.444;2023-04-29T10:04:23;13.80;99.90
31661;DHT22;18267;52.234;7.444;2023-04-29T10:06:52;13.80;99.90
31661;DHT22;18267;52.234;7.444;2023-04-29T10:09:19;14.00;99.90
31661;DHT22;18267;52.234;7.444;2023-04-29T10:11:51;14.00;99.90
31661;DHT22;18267;52.234;7.444;2023-04-29T10:14:18;14.00;99.90
31661;DHT22;18267;52.234;7.444;2023-04-29T10:16:58;13.90;99.90
31661;DHT22;18267;52.234;7.444;2023-04-29T10:19:34;13.70;99.90
31661;DHT22;18267;52.234;7.444;2023-04-29T10:22:07;13.50;99.90
31661;DHT22;18267;52.234;7.444;2023-04-29T10:24:35;13.70;99.90
31661;DHT22;18267;52.234;7.444;2023-04-29T10:27:04;13.90;99.90
31661;DHT22;18267;52.234;7.444;2023-04-29T10:29:33;14.10;99.90
31661;DHT22;18267;52.234;7.444;2023-04-29T10:32:03;14.40;99.90
31661;DHT22;18267;52.234;7.444;2023-04-29T10:34:32;14.60;99.90
31661;DHT22;18267;52.234;7.444;2023-04-29T10:36:59;14.60;99.90
31661;DHT22;18267;52.234;7.444;2023-04-29T10:42:25;14.50;99.90
31661;DHT22;18267;52.234;7.444;2023-04-29T10:45:16;14.40;99.90
31661;DHT22;18267;52.234;7.444;2023-04-29T10:53:11;14.10;99.90
31661;DHT22;18267;52.234;7.444;2023-04-29T10:55:39;14.30;99.90
31661;DHT22;18267;52.234;7.444;2023-04-29T10:58:05;14.30;99.90
31661;DHT22;18267;52.234;7.444;2023-04-29T11:00:52;14.50;99.90
31661;DHT22;18267;52.234;7.444;2023-04-29T11:03:44;14.60;99.90
31661;DHT22;18267;52.234;7.444;2023-04-29T11:06:10;14.50;99.90
31661;DHT22;18267;52.234;7.444;2023-04-29T11:08:39;14.40;99.90
31661;DHT22;18267;52.234;7.444;2023-04-29T11:11:05;14.30;99.90
31661;DHT22;18267;52.234;7.444;2023-04-29T11:13:51;14.20;99.90
31661;DHT22;18267;52.234;7.444;2023-04-29T11:16:25;14.20;99.90
31661;DHT22;18267;52.234;7.444;2023-04-29T11:19:07;14.20;99.90
31661;DHT22;18267;52.234;7.444;2023-04-29T11:21:35;14.10;99.90
31661;DHT22;18267;52.234;7.444;2023-04-29T11:24:01;14.10;99.90
31661;DHT22;18267;52.234;7.444;2023-04-29T11:26:28;14.20;99.90
31661;DHT22;18267;52.234;7.444;2023-04-29T11:28:55;14.40;99.90
31661;DHT22;18267;52.234;7.444;2023-04-29T11:31:31;14.50;99.90
31661;DHT22;18267;52.234;7.444;2023-04-29T11:33:58;14.60;99.90
31661;DHT22;18267;52.234;7.444;2023-04-29T11:36:24;14.80;99.90
31661;DHT22;18267;52.234;7.444;2023-04-29T11:38:52;14.90;99.90
31661;DHT22;18267;52.234;7.444;2023-04-29T11:41:18;14.80;99.90
31661;DHT22;18267;52.234;7.444;2023-04-29T11:43:53;14.70;99.90
31661;DHT22;18267;52.234;7.444;2023-04-29T11:46:19;14.70;99.90
31661;DHT22;18267;52.234;7.444;2023-04-29T11:48:46;14.80;99.90
31661;DHT22;18267;52.234;7.444;2023-04-29T11:51:13;14.70;99.90
31661;DHT22;18267;52.234;7.444;2023-04-29T11:53:38;14.60;99.90
31661;DHT22;18267;52.234;7.444;2023-04-29T11:56:04;14.60;99.90
31661;DHT22;18267;52.234;7.444;2023-04-29T11:58:30;14.40;99.90
31661;DHT22;18267;52.234;7.444;2023-04-29T12:00:57;14.20;99.90
31661;DHT22;18267;52.234;7.444;2023-04-29T12:03:23;14.20;99.90
31661;DHT22;18267;52.234;7.444;2023-04-29T12:05:52;14.20;99.90
31661;DHT22;18267;52.234;7.444;2023-04-29T12:08:19;14.30;99.90
31661;DHT22;18267;52.234;7.444;2023-04-29T12:10:46;14.40;99.90
31661;DHT22;18267;52.234;7.444;2023-04-29T12:13:12;14.40;99.90
31661;DHT22;18267;52.234;7.444;2023-04-29T12:15:38;14.40;99.90
31661;DHT22;18267;52.234;7.444;2023-04-29T12:18:04;14.50;99.90
31661;DHT22;18267;52.234;7.444;2023-04-29T12:20:30;14.60;99.90
31661;DHT22;18267;52.234;7.444;2023-04-29T12:22:56;14.70;99.90
31661;DHT22;18267;52.234;7.444;2023-04-29T12:25:27;14.70;99.90
31661;DHT22;18267;52.234;7.444;2023-04-29T12:27:58;14.90;99.90
31661;DHT22;18267;52.234;7.444;2023-04-29T12:30:25;14.90;99.90
31661;DHT22;18267;52.234;7.444;2023-04-29T12:32:51;14.90;99.90
31661;DHT22;18267;52.234;7.444;2023-04-29T12:35:18;14.90;99.90
31661;DHT22;18267;52.234;7.444;2023-04-29T12:37:49;15.00;99.90
31661;DHT22;18267;52.234;7.444;2023-04-29T12:40:16;15.00;99.90
31661;DHT22;18267;52.234;7.444;2023-04-29T12:42:42;15.00;99.90
31661;DHT22;18267;52.234;7.444;2023-04-29T12:45:25;15.10;99.90
31661;DHT22;18267;52.234;7.444;2023-04-29T12:47:51;15.00;99.90
31661;DHT22;18267;52.234;7.444;2023-04-29T12:50:18;15.00;99.90
31661;DHT22;18267;52.234;7.444;2023-04-29T12:52:44;15.10;99.90
31661;DHT22;18267;52.234;7.444;2023-04-29T12:55:10;15.10;99.90
31661;DHT22;18267;52.234;7.444;2023-04-29T12:57:37;15.10;99.90
31661;DHT22;18267;52.234;7.444;2023-04-29T13:00:04;15.10;99.90
31661;DHT22;18267;52.234;7.444;2023-04-29T13:02:30;15.30;99.90
31661;DHT22;18267;52.234;7.444;2023-04-29T13:04:56;15.40;99.90
31661;DHT22;18267;52.234;7.444;2023-04-29T13:07:22;15.40;99.90
31661;DHT22;18267;52.234;7.444;2023-04-29T13:09:48;15.40;99.90
31661;DHT22;18267;52.234;7.444;2023-04-29T13:12:15;15.50;99.90
31661;DHT22;18267;52.234;7.444;2023-04-29T13:14:41;15.50;99.90
31661;DHT22;18267;52.234;7.444;2023-04-29T13:17:06;15.40;99.90
31661;DHT22;18267;52.234;7.444;2023-04-29T13:19:32;15.50;99.90
31661;DHT22;18267;52.234;7.444;2023-04-29T13:21:58;15.50;99.90
31661;DHT22;18267;52.234;7.444;2023-04-29T13:24:24;15.40;99.90
31661;DHT22;18267;52.234;7.444;2023-04-29T13:26:49;15.40;99.90
31661;DHT22;18267;52.234;7.444;2023-04-29T13:29:16;15.20;99.90
31661;DHT22;18267;52.234;7.444;2023-04-29T13:31:41;15.30;99.90
31661;DHT22;18267;52.234;7.444;2023-04-29T13:34:08;15.20;99.90
31661;DHT22;18267;52.234;7.444;2023-04-29T13:36:34;15.40;99.90
31661;DHT22;18267;52.234;7.444;2023-04-29T13:38:59;15.40;99.90
31661;DHT22;18267;52.234;7.444;2023-04-29T13:41:26;15.50;99.90
31661;DHT22;18267;52.234;7.444;2023-04-29T13:43:52;15.70;99.90
31661;DHT22;18267;52.234;7.444;2023-04-29T13:46:18;15.70;99.90
31661;DHT22;18267;52.234;7.444;2023-04-29T13:48:43;15.70;99.90
31661;DHT22;18267;52.234;7.444;2023-04-29T13:51:09;15.60;99.90
31661;DHT22;18267;52.234;7.444;2023-04-29T13:53:35;15.60;99.90
31661;DHT22;18267;52.234;7.444;2023-04-29T13:56:00;15.50;99.90
31661;DHT22;18267;52.234;7.444;2023-04-29T13:58:27;15.70;99.90
31661;DHT22;18267;52.234;7.444;2023-04-29T14:00:53;15.70;99.90
31661;DHT22;18267;52.234;7.444;2023-04-29T14:03:18;15.80;99.90
31661;DHT22;18267;52.234;7.444;2023-04-29T14:05:44;15.70;99.90
31661;DHT22;18267;52.234;7.444;2023-04-29T14:08:11;15.70;99.90
31661;DHT22;18267;52.234;7.444;2023-04-29T14:10:36;15.80;99.90
31661;DHT22;18267;52.234;7.444;2023-04-29T14:13:02;15.90;99.90
31661;DHT22;18267;52.234;7.444;2023-04-29T14:15:29;15.90;99.90
31661;DHT22;18267;52.234;7.444;2023-04-29T14:17:55;15.90;99.90
31661;DHT22;18267;52.234;7.444;2023-04-29T14:20:21;15.90;99.90
31661;DHT22;18267;52.234;7.444;2023-04-29T14:22:46;15.70;99.90
31661;DHT22;18267;52.234;7.444;2023-04-29T14:25:12;15.80;99.90
31661;DHT22;18267;52.234;7.444;2023-04-29T14:27:37;15.80;99.90
31661;DHT22;18267;52.234;7.444;2023-04-29T14:30:03;15.80;99.90
31661;DHT22;18267;52.234;7.444;2023-04-29T14:32:30;15.90;99.90
31661;DHT22;18267;52.234;7.444;2023-04-29T14:35:22;15.80;99.90
31661;DHT22;18267;52.234;7.444;2023-04-29T14:37:58;15.70;99.90
31661;DHT22;18267;52.234;7.444;2023-04-29T14:40:24;15.80;99.90
31661;DHT22;18267;52.234;7.444;2023-04-29T14:42:50;15.80;99.90
31661;DHT22;18267;52.234;7.444;2023-04-29T14:45:15;15.80;99.90
31661;DHT22;18267;52.234;7.444;2023-04-29T14:47:41;15.80;99.90
31661;DHT22;18267;52.234;7.444;2023-04-29T14:50:07;15.80;99.90
31661;DHT22;18267;52.234;7.444;2023-04-29T14:52:34;15.70;99.90
31661;DHT22;18267;52.234;7.444;2023-04-29T14:55:00;15.80;99.90
31661;DHT22;18267;52.234;7.444;2023-04-29T14:57:26;15.80;99.90
31661;DHT22;18267;52.234;7.444;2023-04-29T14:59:51;15.90;99.90
31661;DHT22;18267;52.234;7.444;2023-04-29T15:02:17;15.80;99.90
31661;DHT22;18267;52.234;7.444;2023-04-29T15:04:42;15.70;99.90
31661;DHT22;18267;52.234;7.444;2023-04-29T15:07:13;15.70;99.90
31661;DHT22;18267;52.234;7.444;2023-04-29T15:09:40;15.70;99.90
31661;DHT22;18267;52.234;7.444;2023-04-29T15:12:06;15.70;99.90
31661;DHT22;18267;52.234;7.444;2023-04-29T15:14:32;15.70;99.90
31661;DHT22;18267;52.234;7.444;2023-04-29T15:16:58;15.70;99.90
31661;DHT22;18267;52.234;7.444;2023-04-29T15:19:23;15.70;99.90
31661;DHT22;18267;52.234;7.444;2023-04-29T15:21:51;15.60;99.90
31661;DHT22;18267;52.234;7.444;2023-04-29T15:24:19;15.60;99.90
31661;DHT22;18267;52.234;7.444;2023-04-29T15:26:45;15.50;99.90
31661;DHT22;18267;52.234;7.444;2023-04-29T15:29:11;15.50;99.90
31661;DHT22;18267;52.234;7.444;2023-04-29T15:31:38;15.40;99.90
31661;DHT22;18267;52.234;7.444;2023-04-29T15:34:03;15.40;99.90
31661;DHT22;18267;52.234;7.444;2023-04-29T15:36:35;15.30;99.90
31661;DHT22;18267;52.234;7.444;2023-04-29T15:39:01;15.30;99.90
31661;DHT22;18267;52.234;7.444;2023-04-29T15:41:26;15.20;99.90
31661;DHT22;18267;52.234;7.444;2023-04-29T15:43:52;15.10;99.90
31661;DHT22;18267;52.234;7.444;2023-04-29T15:46:19;15.20;99.90
31661;DHT22;18267;52.234;7.444;2023-04-29T15:48:45;15.10;99.90
31661;DHT22;18267;52.234;7.444;2023-04-29T15:51:11;15.20;99.90
31661;DHT22;18267;52.234;7.444;2023-04-29T15:53:41;15.10;99.90